Terminal Aerodrome Forecast
Issued by NWS Blacksburg, VA

Current Version | Previous Version | Graphics & Text | Print | Product List | Glossary On
Versions: 1 2 3 4 5 6 7 8 9 10 11 12 13 14 15 16 17 18 19 20 21 22 23 24 25 26 27 28 29 30 31 32 33 34 35 36
911
FTUS41 KRNK 270757 AAA
TAFBLF
TAF AMD
KBLF 270757Z 2708/2806 25004KT 6SM SHRA OVC035
     FM271400 25010KT P6SM OVC040
     FM271800 26009KT P6SM VCTS OVC035CB
      TEMPO 2719/2721 3SM TSRA BR OVC015CB
     FM280200 23005KT P6SM BKN100=

USA.gov is the U.S. government's official web portal to all federal, state and local government web resources and services.